PWSweather.com
Personal Weather Stations
Station Observations
01979
Ravne Pri CerknemSI 5282

Ravne Pri CerknemSI 5282

Lat: 46.1213916, Lon: 13.952774299999987

Elevation: 2244.094488

Station Type: Techo Line WS2307

www.vremenska.postaja.andre.si/

High Low Average
Temperature 57.0°F13.9°C 37.6°F3.1°C 45.5°F7.5°C
Dew Point 38.1°F3.4°C 31.0°F-0.6°C 34.1°F1.2°C
Winds 5.1 mph 8.2 kmh Calm Calm 1.0 mph SE1.6 kmh SE
Wind Gusts 7.6 mph12.2 kmh -- 2.0 mph3.2 kmh
Humidity 82% 43% 66%
Pressure 30.40 in1029.5 mb 30.32 in1026.8 mb -
Precipitation 0.00 in0.0 mm - -
Hour Temp Dew Point Humidity Winds Wind Gusts Pressure Precip Precip Rate Daily Precip Total
12:00 AM 39.7°F4.3°C 34.4°F1.3°C 81% Calm Calm -- 30.33 in1027.1 mb 0.00 in0.0 mm 0.00 in0.0 mm 0.00 in0.0 mm
12:10 AM 39.7°F4.3°C 34.4°F1.3°C 81% Calm Calm -- 30.33 in1027.1 mb 0.00 in0.0 mm 0.00 in0.0 mm 0.00 in0.0 mm
12:20 AM 39.6°F4.2°C 34.5°F1.4°C 82% Calm Calm -- 30.34 in1027.4 mb 0.00 in0.0 mm 0.00 in0.0 mm 0.00 in0.0 mm
12:30 AM 39.4°F4.1°C 34.0°F1.1°C 81% Calm Calm -- 30.34 in1027.4 mb 0.00 in0.0 mm 0.00 in0.0 mm 0.00 in0.0 mm
12:40 AM 39.4°F4.1°C 34.0°F1.1°C 81% Calm Calm -- 30.34 in1027.4 mb 0.00 in0.0 mm 0.00 in0.0 mm 0.00 in0.0 mm
12:50 AM 39.6°F4.2°C 34.2°F1.2°C 81% 0.6 mph ESE1.0 kmh ESE 1.1 mph1.8 kmh 30.34 in1027.4 mb 0.00 in0.0 mm 0.00 in0.0 mm 0.00 in0.0 mm
01:00 AM 39.6°F4.2°C 33.9°F1.1°C 80% Calm Calm -- 30.34 in1027.4 mb 0.00 in0.0 mm 0.00 in0.0 mm 0.00 in0.0 mm
01:10 AM 39.9°F4.4°C 33.6°F0.9°C 78% Calm Calm -- 30.35 in1027.8 mb 0.00 in0.0 mm 0.00 in0.0 mm 0.00 in0.0 mm
01:20 AM 39.9°F4.4°C 33.6°F0.9°C 78% Calm Calm -- 30.35 in1027.8 mb 0.00 in0.0 mm 0.00 in0.0 mm 0.00 in0.0 mm
01:30 AM 39.6°F4.2°C 32.9°F0.5°C 77% Calm Calm -- 30.35 in1027.8 mb 0.00 in0.0 mm 0.00 in0.0 mm 0.00 in0.0 mm
01:40 AM 39.4°F4.1°C 32.8°F0.4°C 77% 0.2 mph ESE0.3 kmh ESE 1.1 mph1.8 kmh 30.35 in1027.8 mb 0.00 in0.0 mm 0.00 in0.0 mm 0.00 in0.0 mm
01:50 AM 39.4°F4.1°C 32.8°F0.4°C 77% 0.5 mph ESE0.8 kmh ESE 1.3 mph2.1 kmh 30.35 in1027.8 mb 0.00 in0.0 mm 0.00 in0.0 mm 0.00 in0.0 mm
02:00 AM 39.2°F4.0°C 32.9°F0.5°C 78% 0.7 mph ESE1.1 kmh ESE 1.3 mph2.1 kmh 30.35 in1027.8 mb 0.00 in0.0 mm 0.00 in0.0 mm 0.00 in0.0 mm
02:05 AM 39.4°F4.1°C 32.8°F0.4°C 77% 0.4 mph 0.6 kmh -- 30.35 in1027.8 mb 0.00 in0.0 mm 0.00 in0.0 mm 0.00 in0.0 mm
02:10 AM 38.8°F3.8°C 32.9°F0.5°C 79% Calm Calm -- 30.35 in1027.8 mb 0.00 in0.0 mm 0.00 in0.0 mm 0.00 in0.0 mm
02:20 AM 38.8°F3.8°C 32.9°F0.5°C 79% 0.7 mph ESE1.1 kmh ESE 1.8 mph2.9 kmh 30.35 in1027.8 mb 0.00 in0.0 mm 0.00 in0.0 mm 0.00 in0.0 mm
02:30 AM 39.0°F3.9°C 32.7°F0.4°C 78% Calm Calm -- 30.35 in1027.8 mb 0.00 in0.0 mm 0.00 in0.0 mm 0.00 in0.0 mm
02:40 AM 39.0°F3.9°C 32.7°F0.4°C 78% Calm Calm -- 30.35 in1027.8 mb 0.00 in0.0 mm 0.00 in0.0 mm 0.00 in0.0 mm
02:50 AM 38.5°F3.6°C 31.9°F-0.1°C 77% 0.2 mph ESE0.3 kmh ESE 1.3 mph2.1 kmh 30.34 in1027.4 mb 0.00 in0.0 mm 0.00 in0.0 mm 0.00 in0.0 mm
03:00 AM 38.5°F3.6°C 31.9°F-0.1°C 77% 1.1 mph ESE1.8 kmh ESE 1.6 mph2.6 kmh 30.34 in1027.4 mb 0.00 in0.0 mm 0.00 in0.0 mm 0.00 in0.0 mm
03:10 AM 38.5°F3.6°C 31.9°F-0.1°C 77% 0.5 mph ESE0.8 kmh ESE 1.3 mph2.1 kmh 30.34 in1027.4 mb 0.00 in0.0 mm 0.00 in0.0 mm 0.00 in0.0 mm
03:20 AM 38.8°F3.8°C 32.2°F0.1°C 77% Calm Calm -- 30.34 in1027.4 mb 0.00 in0.0 mm 0.00 in0.0 mm 0.00 in0.0 mm
03:30 AM 38.8°F3.8°C 31.9°F-0.1°C 76% Calm Calm -- 30.35 in1027.8 mb 0.00 in0.0 mm 0.00 in0.0 mm 0.00 in0.0 mm
03:40 AM 39.0°F3.9°C 32.1°F0.1°C 76% 0.3 mph ESE0.5 kmh ESE 1.3 mph2.1 kmh 30.34 in1027.4 mb 0.00 in0.0 mm 0.00 in0.0 mm 0.00 in0.0 mm
03:50 AM 38.8°F3.8°C 31.9°F-0.1°C 76% Calm Calm -- 30.34 in1027.4 mb 0.00 in0.0 mm 0.00 in0.0 mm 0.00 in0.0 mm
04:00 AM 38.5°F3.6°C 31.9°F-0.1°C 77% Calm Calm -- 30.34 in1027.4 mb 0.00 in0.0 mm 0.00 in0.0 mm 0.00 in0.0 mm
04:10 AM 38.8°F3.8°C 32.2°F0.1°C 77% Calm Calm -- 30.35 in1027.8 mb 0.00 in0.0 mm 0.00 in0.0 mm 0.00 in0.0 mm
04:20 AM 39.0°F3.9°C 32.1°F0.1°C 76% Calm Calm -- 30.35 in1027.8 mb 0.00 in0.0 mm 0.00 in0.0 mm 0.00 in0.0 mm
04:30 AM 39.0°F3.9°C 32.1°F0.1°C 76% Calm Calm -- 30.35 in1027.8 mb 0.00 in0.0 mm 0.00 in0.0 mm 0.00 in0.0 mm
04:40 AM 39.4°F4.1°C 32.4°F0.2°C 76% Calm Calm -- 30.35 in1027.8 mb 0.00 in0.0 mm 0.00 in0.0 mm 0.00 in0.0 mm
04:50 AM 39.0°F3.9°C 32.1°F0.1°C 76% Calm Calm -- 30.35 in1027.8 mb 0.00 in0.0 mm 0.00 in0.0 mm 0.00 in0.0 mm
05:00 AM 39.4°F4.1°C 32.4°F0.2°C 76% Calm Calm -- 30.36 in1028.1 mb 0.00 in0.0 mm 0.00 in0.0 mm 0.00 in0.0 mm
05:10 AM 38.8°F3.8°C 32.2°F0.1°C 77% Calm Calm -- 30.35 in1027.8 mb 0.00 in0.0 mm 0.00 in0.0 mm 0.00 in0.0 mm
05:20 AM 38.3°F3.5°C 32.0°F0.0°C 78% Calm Calm -- 30.35 in1027.8 mb 0.00 in0.0 mm 0.00 in0.0 mm 0.00 in0.0 mm
05:30 AM 38.8°F3.8°C 32.2°F0.1°C 77% Calm Calm -- 30.36 in1028.1 mb 0.00 in0.0 mm 0.00 in0.0 mm 0.00 in0.0 mm
05:40 AM 38.8°F3.8°C 32.2°F0.1°C 77% Calm Calm -- 30.35 in1027.8 mb 0.00 in0.0 mm 0.00 in0.0 mm 0.00 in0.0 mm
05:50 AM 38.8°F3.8°C 32.2°F0.1°C 77% Calm Calm -- 30.36 in1028.1 mb 0.00 in0.0 mm 0.00 in0.0 mm 0.00 in0.0 mm
06:00 AM 38.8°F3.8°C 32.2°F0.1°C 77% Calm Calm -- 30.36 in1028.1 mb 0.00 in0.0 mm 0.00 in0.0 mm 0.00 in0.0 mm
06:10 AM 39.0°F3.9°C 32.1°F0.1°C 76% Calm Calm -- 30.36 in1028.1 mb 0.00 in0.0 mm 0.00 in0.0 mm 0.00 in0.0 mm
06:20 AM 39.0°F3.9°C 32.1°F0.1°C 76% Calm Calm -- 30.36 in1028.1 mb 0.00 in0.0 mm 0.00 in0.0 mm 0.00 in0.0 mm
06:30 AM 39.0°F3.9°C 32.1°F0.1°C 76% Calm Calm -- 30.35 in1027.8 mb 0.00 in0.0 mm 0.00 in0.0 mm 0.00 in0.0 mm
06:40 AM 38.7°F3.7°C 31.7°F-0.2°C 76% Calm Calm -- 30.36 in1028.1 mb 0.00 in0.0 mm 0.00 in0.0 mm 0.00 in0.0 mm
06:50 AM 37.6°F3.1°C 31.0°F-0.6°C 77% Calm Calm -- 30.36 in1028.1 mb 0.00 in0.0 mm 0.00 in0.0 mm 0.00 in0.0 mm
07:00 AM 38.1°F3.4°C 31.5°F-0.3°C 77% 0.4 mph ESE0.6 kmh ESE 1.3 mph2.1 kmh 30.36 in1028.1 mb 0.00 in0.0 mm 0.00 in0.0 mm 0.00 in0.0 mm
07:10 AM 38.3°F3.5°C 31.7°F-0.2°C 77% 0.5 mph ESE0.8 kmh ESE 2.0 mph3.2 kmh 30.36 in1028.1 mb 0.00 in0.0 mm 0.00 in0.0 mm 0.00 in0.0 mm
07:20 AM 38.5°F3.6°C 31.9°F-0.1°C 77% 0.9 mph ESE1.4 kmh ESE 3.1 mph5.0 kmh 30.37 in1028.4 mb 0.00 in0.0 mm 0.00 in0.0 mm 0.00 in0.0 mm
07:30 AM 39.0°F3.9°C 32.1°F0.1°C 76% 1.1 mph ESE1.8 kmh ESE 1.8 mph2.9 kmh 30.38 in1028.8 mb 0.00 in0.0 mm 0.00 in0.0 mm 0.00 in0.0 mm
07:40 AM 38.8°F3.8°C 31.9°F-0.1°C 76% 0.5 mph ESE0.8 kmh ESE 2.0 mph3.2 kmh 30.38 in1028.8 mb 0.00 in0.0 mm 0.00 in0.0 mm 0.00 in0.0 mm
07:50 AM 38.5°F3.6°C 31.6°F-0.2°C 76% 0.3 mph ESE0.5 kmh ESE 1.6 mph2.6 kmh 30.38 in1028.8 mb 0.00 in0.0 mm 0.00 in0.0 mm 0.00 in0.0 mm
08:00 AM 39.0°F3.9°C 32.1°F0.1°C 76% 1.5 mph ESE2.4 kmh ESE 3.1 mph5.0 kmh 30.38 in1028.8 mb 0.00 in0.0 mm 0.00 in0.0 mm 0.00 in0.0 mm
08:10 AM 39.4°F4.1°C 32.4°F0.2°C 76% 0.3 mph ESE0.5 kmh ESE 3.1 mph5.0 kmh 30.38 in1028.8 mb 0.00 in0.0 mm 0.00 in0.0 mm 0.00 in0.0 mm
08:20 AM 39.9°F4.4°C 32.6°F0.3°C 75% Calm Calm -- 30.38 in1028.8 mb 0.00 in0.0 mm 0.00 in0.0 mm 0.00 in0.0 mm
08:30 AM 40.8°F4.9°C 33.2°F0.7°C 74% 0.3 mph ESE0.5 kmh ESE 1.3 mph2.1 kmh 30.39 in1029.1 mb 0.00 in0.0 mm 0.00 in0.0 mm 0.00 in0.0 mm
08:40 AM 41.7°F5.4°C 34.0°F1.1°C 74% Calm Calm -- 30.39 in1029.1 mb 0.00 in0.0 mm 0.00 in0.0 mm 0.00 in0.0 mm
08:50 AM 42.1°F5.6°C 33.7°F0.9°C 72% 0.8 mph ESE1.3 kmh ESE 3.8 mph6.1 kmh 30.39 in1029.1 mb 0.00 in0.0 mm 0.00 in0.0 mm 0.00 in0.0 mm
09:00 AM 42.4°F5.8°C 34.0°F1.1°C 72% 0.7 mph ESE1.1 kmh ESE 3.1 mph5.0 kmh 30.39 in1029.1 mb 0.00 in0.0 mm 0.00 in0.0 mm 0.00 in0.0 mm
09:10 AM 43.5°F6.4°C 34.7°F1.5°C 71% 1.6 mph E2.6 kmh E 4.3 mph6.9 kmh 30.39 in1029.1 mb 0.00 in0.0 mm 0.00 in0.0 mm 0.00 in0.0 mm
09:20 AM 44.2°F6.8°C 35.1°F1.7°C 70% 2.6 mph ESE4.2 kmh ESE 6.3 mph10.1 kmh 30.40 in1029.5 mb 0.00 in0.0 mm 0.00 in0.0 mm 0.00 in0.0 mm
09:30 AM 43.9°F6.6°C 34.4°F1.3°C 69% 5.1 mph ESE8.2 kmh ESE 6.3 mph10.1 kmh 30.39 in1029.1 mb 0.00 in0.0 mm 0.00 in0.0 mm 0.00 in0.0 mm
09:40 AM 44.4°F6.9°C 35.2°F1.8°C 70% 2.2 mph E3.5 kmh E 6.0 mph9.7 kmh 30.40 in1029.5 mb 0.00 in0.0 mm 0.00 in0.0 mm 0.00 in0.0 mm
09:50 AM 45.3°F7.4°C 35.7°F2.1°C 69% 0.7 mph S1.1 kmh S 2.0 mph3.2 kmh 30.40 in1029.5 mb 0.00 in0.0 mm 0.00 in0.0 mm 0.00 in0.0 mm
10:00 AM 45.0°F7.2°C 35.4°F1.9°C 69% 4.0 mph S6.4 kmh S 6.7 mph10.8 kmh 30.40 in1029.5 mb 0.00 in0.0 mm 0.00 in0.0 mm 0.00 in0.0 mm
10:10 AM 45.7°F7.6°C 35.3°F1.8°C 67% Calm Calm -- 30.39 in1029.1 mb 0.00 in0.0 mm 0.00 in0.0 mm 0.00 in0.0 mm
10:20 AM 46.9°F8.3°C 36.5°F2.5°C 67% Calm Calm -- 30.40 in1029.5 mb 0.00 in0.0 mm 0.00 in0.0 mm 0.00 in0.0 mm
10:30 AM 47.8°F8.8°C 36.6°F2.6°C 65% 0.2 mph SE0.3 kmh SE 1.6 mph2.6 kmh 30.40 in1029.5 mb 0.00 in0.0 mm 0.00 in0.0 mm 0.00 in0.0 mm
10:40 AM 48.2°F9.0°C 36.6°F2.6°C 64% 0.7 mph SSE1.1 kmh SSE 2.7 mph4.3 kmh 30.39 in1029.1 mb 0.00 in0.0 mm 0.00 in0.0 mm 0.00 in0.0 mm
10:50 AM 47.5°F8.6°C 36.3°F2.4°C 65% 1.5 mph SE2.4 kmh SE 3.8 mph6.1 kmh 30.40 in1029.5 mb 0.00 in0.0 mm 0.00 in0.0 mm 0.00 in0.0 mm
11:00 AM 48.2°F9.0°C 37.0°F2.8°C 65% 0.2 mph SE0.3 kmh SE 0.9 mph1.4 kmh 30.40 in1029.5 mb 0.00 in0.0 mm 0.00 in0.0 mm 0.00 in0.0 mm
11:10 AM 48.2°F9.0°C 36.6°F2.6°C 64% 1.3 mph E2.1 kmh E 4.9 mph7.9 kmh 30.40 in1029.5 mb 0.00 in0.0 mm 0.00 in0.0 mm 0.00 in0.0 mm
11:20 AM 50.0°F10.0°C 37.5°F3.1°C 62% 1.1 mph SE1.8 kmh SE 3.8 mph6.1 kmh 30.40 in1029.5 mb 0.00 in0.0 mm 0.00 in0.0 mm 0.00 in0.0 mm
11:30 AM 50.7°F10.4°C 37.3°F2.9°C 60% 1.1 mph S1.8 kmh S 4.9 mph7.9 kmh 30.39 in1029.1 mb 0.00 in0.0 mm 0.00 in0.0 mm 0.00 in0.0 mm
11:40 AM 50.7°F10.4°C 37.3°F2.9°C 60% 3.6 mph S5.8 kmh S 6.3 mph10.1 kmh 30.39 in1029.1 mb 0.00 in0.0 mm 0.00 in0.0 mm 0.00 in0.0 mm
11:50 AM 50.7°F10.4°C 37.3°F2.9°C 60% 2.5 mph S4.0 kmh S 5.6 mph9.0 kmh 30.39 in1029.1 mb 0.00 in0.0 mm 0.00 in0.0 mm 0.00 in0.0 mm
12:00 PM 50.2°F10.1°C 36.4°F2.4°C 59% 4.4 mph S7.1 kmh S 6.3 mph10.1 kmh 30.38 in1028.8 mb 0.00 in0.0 mm 0.00 in0.0 mm 0.00 in0.0 mm
12:10 PM 51.4°F10.8°C 37.6°F3.1°C 59% 1.3 mph S2.1 kmh S 6.3 mph10.1 kmh 30.38 in1028.8 mb 0.00 in0.0 mm 0.00 in0.0 mm 0.00 in0.0 mm
12:20 PM 51.1°F10.6°C 37.2°F2.9°C 59% 2.6 mph S4.2 kmh S 5.8 mph9.3 kmh 30.38 in1028.8 mb 0.00 in0.0 mm 0.00 in0.0 mm 0.00 in0.0 mm
12:30 PM 52.0°F11.1°C 37.2°F2.9°C 57% 0.7 mph S1.1 kmh S 3.1 mph5.0 kmh 30.38 in1028.8 mb 0.00 in0.0 mm 0.00 in0.0 mm 0.00 in0.0 mm
12:40 PM 52.9°F11.6°C 37.1°F2.8°C 55% 1.4 mph S2.3 kmh S 3.6 mph5.8 kmh 30.37 in1028.4 mb 0.00 in0.0 mm 0.00 in0.0 mm 0.00 in0.0 mm
12:50 PM 54.0°F12.2°C 38.1°F3.4°C 55% 0.4 mph SSW0.6 kmh SSW 1.3 mph2.1 kmh 30.37 in1028.4 mb 0.00 in0.0 mm 0.00 in0.0 mm 0.00 in0.0 mm
01:00 PM 53.8°F12.1°C 37.5°F3.1°C 54% 0.2 mph WNW0.3 kmh WNW 1.1 mph1.8 kmh 30.37 in1028.4 mb 0.00 in0.0 mm 0.00 in0.0 mm 0.00 in0.0 mm
01:10 PM 53.2°F11.8°C 35.6°F2.0°C 51% 0.5 mph NNW0.8 kmh NNW 2.5 mph4.0 kmh 30.36 in1028.1 mb 0.00 in0.0 mm 0.00 in0.0 mm 0.00 in0.0 mm
01:20 PM 52.9°F11.6°C 35.2°F1.8°C 51% 2.8 mph NW4.5 kmh NW 6.3 mph10.1 kmh 30.36 in1028.1 mb 0.00 in0.0 mm 0.00 in0.0 mm 0.00 in0.0 mm
01:30 PM 54.1°F12.3°C 36.4°F2.4°C 51% 3.1 mph NW5.0 kmh NW 4.9 mph7.9 kmh 30.36 in1028.1 mb 0.00 in0.0 mm 0.00 in0.0 mm 0.00 in0.0 mm
01:40 PM 54.3°F12.4°C 36.1°F2.3°C 50% 2.0 mph NW3.2 kmh NW 4.9 mph7.9 kmh 30.35 in1027.8 mb 0.00 in0.0 mm 0.00 in0.0 mm 0.00 in0.0 mm
01:50 PM 53.8°F12.1°C 35.6°F2.0°C 50% 3.0 mph NW4.8 kmh NW 6.7 mph10.8 kmh 30.35 in1027.8 mb 0.00 in0.0 mm 0.00 in0.0 mm 0.00 in0.0 mm
02:00 PM 54.1°F12.3°C 36.4°F2.4°C 51% 4.6 mph NW7.4 kmh NW 6.9 mph11.1 kmh 30.35 in1027.8 mb 0.00 in0.0 mm 0.00 in0.0 mm 0.00 in0.0 mm
02:10 PM 54.3°F12.4°C 35.5°F1.9°C 49% 3.3 mph NW5.3 kmh NW 5.4 mph8.7 kmh 30.35 in1027.8 mb 0.00 in0.0 mm 0.00 in0.0 mm 0.00 in0.0 mm
02:20 PM 55.6°F13.1°C 35.1°F1.7°C 46% 3.5 mph WNW5.6 kmh WNW 6.5 mph10.5 kmh 30.34 in1027.4 mb 0.00 in0.0 mm 0.00 in0.0 mm 0.00 in0.0 mm
02:30 PM 56.5°F13.6°C 35.4°F1.9°C 45% 0.3 mph W0.5 kmh W 6.5 mph10.5 kmh 30.34 in1027.4 mb 0.00 in0.0 mm 0.00 in0.0 mm 0.00 in0.0 mm
02:40 PM 56.8°F13.8°C 36.3°F2.4°C 46% 2.0 mph NNW3.2 kmh NNW 4.3 mph6.9 kmh 30.35 in1027.8 mb 0.00 in0.0 mm 0.00 in0.0 mm 0.00 in0.0 mm
02:50 PM 57.0°F13.9°C 36.4°F2.4°C 46% 0.7 mph NW1.1 kmh NW 2.2 mph3.5 kmh 30.34 in1027.4 mb 0.00 in0.0 mm 0.00 in0.0 mm 0.00 in0.0 mm
03:00 PM 56.8°F13.8°C 34.6°F1.4°C 43% 1.3 mph SW2.1 kmh SW 5.8 mph9.3 kmh 30.34 in1027.4 mb 0.00 in0.0 mm 0.00 in0.0 mm 0.00 in0.0 mm
03:10 PM 56.5°F13.6°C 34.2°F1.2°C 43% 3.1 mph W5.0 kmh W 4.7 mph7.6 kmh 30.34 in1027.4 mb 0.00 in0.0 mm 0.00 in0.0 mm 0.00 in0.0 mm
03:20 PM 56.1°F13.4°C 34.5°F1.4°C 44% 3.7 mph SW6.0 kmh SW 6.9 mph11.1 kmh 30.34 in1027.4 mb 0.00 in0.0 mm 0.00 in0.0 mm 0.00 in0.0 mm
03:30 PM 56.5°F13.6°C 34.2°F1.2°C 43% 1.5 mph NW2.4 kmh NW 6.5 mph10.5 kmh 30.34 in1027.4 mb 0.00 in0.0 mm 0.00 in0.0 mm 0.00 in0.0 mm
03:40 PM 56.1°F13.4°C 34.5°F1.4°C 44% 1.8 mph SW2.9 kmh SW 7.6 mph12.2 kmh 30.34 in1027.4 mb 0.00 in0.0 mm 0.00 in0.0 mm 0.00 in0.0 mm
03:50 PM 55.9°F13.3°C 33.7°F0.9°C 43% Calm Calm -- 30.34 in1027.4 mb 0.00 in0.0 mm 0.00 in0.0 mm 0.00 in0.0 mm
04:00 PM 55.2°F12.9°C 34.2°F1.2°C 45% 1.1 mph WSW1.8 kmh WSW 5.1 mph8.2 kmh 30.34 in1027.4 mb 0.00 in0.0 mm 0.00 in0.0 mm 0.00 in0.0 mm
04:10 PM 55.2°F12.9°C 34.2°F1.2°C 45% 2.9 mph WNW4.7 kmh WNW 4.7 mph7.6 kmh 30.33 in1027.1 mb 0.00 in0.0 mm 0.00 in0.0 mm 0.00 in0.0 mm
04:20 PM 55.0°F12.8°C 34.1°F1.2°C 45% Calm Calm -- 30.33 in1027.1 mb 0.00 in0.0 mm 0.00 in0.0 mm 0.00 in0.0 mm
04:30 PM 54.5°F12.5°C 33.6°F0.9°C 45% Calm Calm -- 30.33 in1027.1 mb 0.00 in0.0 mm 0.00 in0.0 mm 0.00 in0.0 mm
04:40 PM 54.0°F12.2°C 33.6°F0.9°C 46% Calm Calm -- 30.33 in1027.1 mb 0.00 in0.0 mm 0.00 in0.0 mm 0.00 in0.0 mm
04:50 PM 52.9°F11.6°C 33.2°F0.7°C 47% 0.5 mph W0.8 kmh W 2.5 mph4.0 kmh 30.33 in1027.1 mb 0.00 in0.0 mm 0.00 in0.0 mm 0.00 in0.0 mm
05:00 PM 52.9°F11.6°C 33.2°F0.7°C 47% 2.6 mph WNW4.2 kmh WNW 4.3 mph6.9 kmh 30.33 in1027.1 mb 0.00 in0.0 mm 0.00 in0.0 mm 0.00 in0.0 mm
05:10 PM 52.9°F11.6°C 33.2°F0.7°C 47% 4.3 mph WNW6.9 kmh WNW 4.3 mph6.9 kmh 30.33 in1027.1 mb 0.00 in0.0 mm 0.00 in0.0 mm 0.00 in0.0 mm
05:20 PM 52.9°F11.6°C 33.2°F0.7°C 47% 4.3 mph WNW6.9 kmh WNW 4.3 mph6.9 kmh 30.33 in1027.1 mb 0.00 in0.0 mm 0.00 in0.0 mm 0.00 in0.0 mm
05:30 PM 52.9°F11.6°C 33.2°F0.7°C 47% 4.3 mph WNW6.9 kmh WNW 4.3 mph6.9 kmh 30.33 in1027.1 mb 0.00 in0.0 mm 0.00 in0.0 mm 0.00 in0.0 mm
05:40 PM 52.9°F11.6°C 33.2°F0.7°C 47% 4.3 mph WNW6.9 kmh WNW 4.3 mph6.9 kmh 30.34 in1027.4 mb 0.00 in0.0 mm 0.00 in0.0 mm 0.00 in0.0 mm
05:50 PM 52.9°F11.6°C 33.2°F0.7°C 53% 4.3 mph WNW6.9 kmh WNW 4.3 mph6.9 kmh 30.34 in1027.4 mb 0.00 in0.0 mm 0.00 in0.0 mm 0.00 in0.0 mm
06:00 PM 52.9°F11.6°C 33.2°F0.7°C 53% 4.3 mph WNW6.9 kmh WNW 4.3 mph6.9 kmh 30.34 in1027.4 mb 0.00 in0.0 mm 0.00 in0.0 mm 0.00 in0.0 mm
06:10 PM 52.9°F11.6°C 33.2°F0.7°C 53% 4.3 mph WNW6.9 kmh WNW 4.3 mph6.9 kmh 30.33 in1027.1 mb 0.00 in0.0 mm 0.00 in0.0 mm 0.00 in0.0 mm
06:20 PM 52.9°F11.6°C 33.2°F0.7°C 53% 4.3 mph WNW6.9 kmh WNW 4.3 mph6.9 kmh 30.34 in1027.4 mb 0.00 in0.0 mm 0.00 in0.0 mm 0.00 in0.0 mm
06:30 PM 52.9°F11.6°C 33.2°F0.7°C 53% 4.3 mph WNW6.9 kmh WNW 4.3 mph6.9 kmh 30.34 in1027.4 mb 0.00 in0.0 mm 0.00 in0.0 mm 0.00 in0.0 mm
06:40 PM 52.9°F11.6°C 33.2°F0.7°C 53% 4.3 mph WNW6.9 kmh WNW 4.3 mph6.9 kmh 30.34 in1027.4 mb 0.00 in0.0 mm 0.00 in0.0 mm 0.00 in0.0 mm
06:50 PM 46.2°F7.9°C 32.2°F0.1°C 58% 4.3 mph WNW6.9 kmh WNW 4.3 mph6.9 kmh 30.34 in1027.4 mb 0.00 in0.0 mm 0.00 in0.0 mm 0.00 in0.0 mm
07:00 PM 46.2°F7.9°C 32.2°F0.1°C 58% 4.3 mph WNW6.9 kmh WNW 4.3 mph6.9 kmh 30.34 in1027.4 mb 0.00 in0.0 mm 0.00 in0.0 mm 0.00 in0.0 mm
07:10 PM 46.2°F7.9°C 33.9°F1.1°C 62% Calm Calm -- 30.34 in1027.4 mb 0.00 in0.0 mm 0.00 in0.0 mm 0.00 in0.0 mm
07:20 PM 46.0°F7.8°C 33.7°F0.9°C 62% Calm Calm -- 30.34 in1027.4 mb 0.00 in0.0 mm 0.00 in0.0 mm 0.00 in0.0 mm
07:30 PM 46.0°F7.8°C 34.1°F1.2°C 63% Calm Calm -- 30.33 in1027.1 mb 0.00 in0.0 mm 0.00 in0.0 mm 0.00 in0.0 mm
07:40 PM 45.7°F7.6°C 34.2°F1.2°C 64% Calm Calm -- 30.33 in1027.1 mb 0.00 in0.0 mm 0.00 in0.0 mm 0.00 in0.0 mm
07:50 PM 45.5°F7.5°C 34.4°F1.3°C 65% Calm Calm -- 30.33 in1027.1 mb 0.00 in0.0 mm 0.00 in0.0 mm 0.00 in0.0 mm
08:00 PM 45.3°F7.4°C 34.6°F1.4°C 66% Calm Calm -- 30.33 in1027.1 mb 0.00 in0.0 mm 0.00 in0.0 mm 0.00 in0.0 mm
08:10 PM 45.1°F7.3°C 34.8°F1.6°C 67% Calm Calm -- 30.33 in1027.1 mb 0.00 in0.0 mm 0.00 in0.0 mm 0.00 in0.0 mm
08:20 PM 45.0°F7.2°C 34.3°F1.3°C 66% Calm Calm -- 30.33 in1027.1 mb 0.00 in0.0 mm 0.00 in0.0 mm 0.00 in0.0 mm
08:30 PM 45.1°F7.3°C 34.8°F1.6°C 67% Calm Calm -- 30.33 in1027.1 mb 0.00 in0.0 mm 0.00 in0.0 mm 0.00 in0.0 mm
08:40 PM 45.5°F7.5°C 35.2°F1.8°C 67% 0.2 mph NNW0.3 kmh NNW 1.8 mph2.9 kmh 30.33 in1027.1 mb 0.00 in0.0 mm 0.00 in0.0 mm 0.00 in0.0 mm
08:50 PM 45.5°F7.5°C 35.2°F1.8°C 67% 0.8 mph NNW1.3 kmh NNW 1.8 mph2.9 kmh 30.33 in1027.1 mb 0.00 in0.0 mm 0.00 in0.0 mm 0.00 in0.0 mm
09:00 PM 45.3°F7.4°C 35.4°F1.9°C 68% Calm Calm -- 30.33 in1027.1 mb 0.00 in0.0 mm 0.00 in0.0 mm 0.00 in0.0 mm
09:10 PM 45.1°F7.3°C 35.2°F1.8°C 68% 1.7 mph NW2.7 kmh NW 4.5 mph7.2 kmh 30.33 in1027.1 mb 0.00 in0.0 mm 0.00 in0.0 mm 0.00 in0.0 mm
09:20 PM 45.1°F7.3°C 35.2°F1.8°C 68% 2.8 mph N4.5 kmh N 4.0 mph6.4 kmh 30.33 in1027.1 mb 0.00 in0.0 mm 0.00 in0.0 mm 0.00 in0.0 mm
09:30 PM 45.1°F7.3°C 35.6°F2.0°C 69% 2.1 mph NNW3.4 kmh NNW 2.5 mph4.0 kmh 30.33 in1027.1 mb 0.00 in0.0 mm 0.00 in0.0 mm 0.00 in0.0 mm
09:40 PM 45.1°F7.3°C 35.2°F1.8°C 68% 1.9 mph NNW3.1 kmh NNW 4.7 mph7.6 kmh 30.34 in1027.4 mb 0.00 in0.0 mm 0.00 in0.0 mm 0.00 in0.0 mm
09:50 PM 45.1°F7.3°C 35.2°F1.8°C 68% 0.5 mph NNW0.8 kmh NNW 2.2 mph3.5 kmh 30.33 in1027.1 mb 0.00 in0.0 mm 0.00 in0.0 mm 0.00 in0.0 mm
10:00 PM 44.8°F7.1°C 35.2°F1.8°C 69% Calm Calm -- 30.33 in1027.1 mb 0.00 in0.0 mm 0.00 in0.0 mm 0.00 in0.0 mm
10:10 PM 44.4°F6.9°C 35.2°F1.8°C 70% Calm Calm -- 30.33 in1027.1 mb 0.00 in0.0 mm 0.00 in0.0 mm 0.00 in0.0 mm
10:20 PM 44.2°F6.8°C 35.1°F1.7°C 70% 0.2 mph NNW0.3 kmh NNW 0.9 mph1.4 kmh 30.33 in1027.1 mb 0.00 in0.0 mm 0.00 in0.0 mm 0.00 in0.0 mm
10:30 PM 44.2°F6.8°C 35.1°F1.7°C 70% Calm Calm -- 30.34 in1027.4 mb 0.00 in0.0 mm 0.00 in0.0 mm 0.00 in0.0 mm
10:40 PM 43.9°F6.6°C 34.7°F1.5°C 70% Calm Calm -- 30.33 in1027.1 mb 0.00 in0.0 mm 0.00 in0.0 mm 0.00 in0.0 mm
10:50 PM 43.9°F6.6°C 34.7°F1.5°C 70% Calm Calm -- 30.33 in1027.1 mb 0.00 in0.0 mm 0.00 in0.0 mm 0.00 in0.0 mm
11:00 PM 43.7°F6.5°C 34.6°F1.4°C 70% Calm Calm -- 30.33 in1027.1 mb 0.00 in0.0 mm 0.00 in0.0 mm 0.00 in0.0 mm
11:10 PM 43.5°F6.4°C 34.4°F1.3°C 70% Calm Calm -- 30.33 in1027.1 mb 0.00 in0.0 mm 0.00 in0.0 mm 0.00 in0.0 mm
11:20 PM 43.5°F6.4°C 34.4°F1.3°C 70% Calm Calm -- 30.32 in1026.8 mb 0.00 in0.0 mm 0.00 in0.0 mm 0.00 in0.0 mm
11:30 PM 43.5°F6.4°C 34.4°F1.3°C 70% Calm Calm -- 30.32 in1026.8 mb 0.00 in0.0 mm 0.00 in0.0 mm 0.00 in0.0 mm
11:40 PM 43.2°F6.2°C 34.4°F1.3°C 71% Calm Calm -- 30.33 in1027.1 mb 0.00 in0.0 mm 0.00 in0.0 mm 0.00 in0.0 mm
11:50 PM 42.6°F5.9°C 33.9°F1.1°C 71% Calm Calm -- 30.32 in1026.8 mb 0.00 in0.0 mm 0.00 in0.0 mm 0.00 in0.0 mm